createdAt,value
2023-01-21T00:05:01.156Z,1.27
2023-01-21T00:10:32.860Z,1.18
2023-01-21T00:16:04.364Z,1.12
2023-01-21T00:21:36.236Z,1.43
2023-01-21T00:27:12.190Z,1.42
2023-01-21T00:32:43.874Z,1.37
2023-01-21T00:38:15.940Z,1.27
2023-01-21T00:43:47.559Z,1.36
2023-01-21T00:49:19.277Z,1.36
2023-01-21T00:54:50.795Z,1.01
2023-01-21T01:00:22.561Z,0.89
2023-01-21T01:05:54.564Z,1.03
2023-01-21T01:11:26.030Z,0.91
2023-01-21T01:16:57.874Z,0.55
2023-01-21T01:22:29.387Z,0.87
2023-01-21T01:28:05.549Z,0.98
2023-01-21T01:33:37.280Z,1.01
2023-01-21T01:39:08.994Z,1.15
2023-01-21T01:44:40.683Z,0.94
2023-01-21T01:50:12.692Z,1.01
2023-01-21T01:55:44.393Z,0.8
2023-01-21T02:01:16.064Z,0.95
2023-01-21T02:06:47.846Z,0.94
2023-01-21T02:12:19.513Z,0.81
2023-01-21T02:17:51.259Z,0.48
2023-01-21T02:23:23.003Z,0.42
2023-01-21T02:28:58.864Z,0.47
2023-01-21T02:34:30.821Z,0.19
2023-01-21T02:40:03.059Z,0.19
2023-01-21T02:45:34.302Z,0.05
2023-01-21T02:51:05.823Z,0.04
2023-01-21T02:56:37.503Z,-0.29
2023-01-21T03:02:09.201Z,0.12
2023-01-21T03:07:40.905Z,0.06
2023-01-21T03:13:12.621Z,0.0
2023-01-21T03:18:44.579Z,-0.08
2023-01-21T03:24:16.108Z,-0.06
2023-01-21T03:29:52.235Z,-0.12
2023-01-21T03:35:23.932Z,-0.17
2023-01-21T03:40:55.895Z,-0.15
2023-01-21T03:46:27.352Z,-0.27
2023-01-21T03:51:59.125Z,-0.44
2023-01-21T03:57:31.083Z,-0.54
2023-01-21T04:03:02.736Z,-0.61
2023-01-21T04:08:34.619Z,-0.65
2023-01-21T04:14:06.015Z,-0.74
2023-01-21T04:19:37.754Z,-0.81
2023-01-21T04:25:09.648Z,-0.77
2023-01-21T04:30:45.852Z,-0.87
2023-01-21T04:36:17.308Z,-0.9
2023-01-21T04:41:49.027Z,-0.99
2023-01-21T04:47:20.959Z,-1.03
2023-01-21T04:52:52.472Z,-1.1
2023-01-21T04:58:24.396Z,-1.18
2023-01-21T05:03:56.160Z,-1.16
2023-01-21T05:09:27.846Z,-1.32
2023-01-21T05:14:59.337Z,-1.26
2023-01-21T05:20:31.049Z,-1.49
2023-01-21T05:26:02.800Z,-1.55
2023-01-21T05:31:38.949Z,-1.63
2023-01-21T05:37:10.602Z,-1.68
2023-01-21T05:42:42.976Z,-1.65
2023-01-21T05:48:14.424Z,-1.73
2023-01-21T05:53:45.962Z,-1.72
2023-01-21T05:59:17.884Z,-1.73
2023-01-21T06:04:49.478Z,-1.79
2023-01-21T06:10:21.004Z,-1.71
2023-01-21T06:15:52.714Z,-1.65
2023-01-21T06:21:24.693Z,-1.41
2023-01-21T06:26:56.367Z,-1.49
2023-01-21T06:32:32.639Z,-1.49
2023-01-21T06:38:04.276Z,-1.27
2023-01-21T06:43:35.920Z,-1.34
2023-01-21T06:49:07.509Z,-1.3
2023-01-21T06:54:39.621Z,-1.84
2023-01-21T07:00:10.905Z,-2.17
2023-01-21T07:05:43.163Z,-1.98
2023-01-21T07:11:14.549Z,-1.99
2023-01-21T07:16:46.085Z,-2.38
2023-01-21T07:22:18.064Z,-1.68
2023-01-21T07:27:49.550Z,-1.36
2023-01-21T07:33:27.643Z,-1.27
2023-01-21T07:38:59.329Z,-1.26
2023-01-21T07:44:31.040Z,-1.36
2023-01-21T07:50:02.756Z,-1.32
2023-01-21T07:55:34.517Z,-1.2
2023-01-21T08:01:06.597Z,-1.05
2023-01-21T08:06:37.929Z,-0.89
2023-01-21T08:12:09.724Z,-1.16
2023-01-21T08:17:41.921Z,-1.05
2023-01-21T08:23:13.320Z,-1.2
2023-01-21T08:28:45.477Z,-1.06
2023-01-21T08:34:21.221Z,-0.51
2023-01-21T08:39:53.210Z,-0.64
2023-01-21T08:45:24.977Z,-0.85
2023-01-21T08:50:56.726Z,-0.78
2023-01-21T08:56:28.438Z,-0.53
2023-01-21T09:02:00.183Z,-0.5
2023-01-21T09:07:31.920Z,-0.53
2023-01-21T09:13:03.376Z,-0.25
2023-01-21T09:18:35.284Z,-0.56
2023-01-21T09:24:07.040Z,-0.47
2023-01-21T09:29:38.635Z,-0.4
2023-01-21T09:35:15.226Z,-0.25
2023-01-21T09:40:46.765Z,-0.67
2023-01-21T09:46:18.336Z,-0.12
2023-01-21T09:51:52.349Z,-0.19
2023-01-21T09:57:21.960Z,-0.25
2023-01-21T10:02:53.501Z,0.18
2023-01-21T10:08:25.701Z,0.27
2023-01-21T10:13:56.705Z,-0.13
2023-01-21T10:19:28.676Z,-0.57
2023-01-21T10:25:00.320Z,-0.31
2023-01-21T10:30:32.446Z,-0.28
2023-01-21T10:36:08.139Z,-0.41
2023-01-21T10:41:39.972Z,-0.41
2023-01-21T10:47:11.528Z,-0.54
2023-01-21T10:52:43.204Z,-0.62
2023-01-21T10:58:15.127Z,-0.11
2023-01-21T11:03:46.769Z,0.14
2023-01-21T11:09:18.479Z,0.33
2023-01-21T11:14:50.194Z,0.85
2023-01-21T11:20:22.050Z,0.61
2023-01-21T11:25:53.546Z,0.9
2023-01-21T11:31:25.273Z,0.81
2023-01-21T11:37:01.347Z,0.92
2023-01-21T11:42:33.084Z,0.69
2023-01-21T11:48:04.827Z,0.45
2023-01-21T11:53:36.514Z,0.49
2023-01-21T11:59:08.363Z,0.66
2023-01-21T12:04:39.967Z,0.7
2023-01-21T12:10:12.021Z,0.8
2023-01-21T12:15:43.610Z,0.57
2023-01-21T12:21:15.161Z,0.59
2023-01-21T12:26:46.885Z,0.34
2023-01-21T12:32:18.555Z,0.37
2023-01-21T12:37:54.843Z,0.48
2023-01-21T12:43:26.577Z,0.44
2023-01-21T12:48:58.141Z,0.6
2023-01-21T12:54:30.010Z,0.85
2023-01-21T13:00:01.844Z,0.95
2023-01-21T13:05:33.479Z,1.08
2023-01-21T13:11:05.140Z,1.0
2023-01-21T13:16:36.777Z,1.18
2023-01-21T13:22:08.492Z,1.2
2023-01-21T13:27:40.207Z,1.02
2023-01-21T13:33:12.032Z,1.05
2023-01-21T13:38:48.142Z,0.94
2023-01-21T13:44:20.062Z,0.79
2023-01-21T13:49:51.466Z,1.05
2023-01-21T13:55:23.232Z,0.98
2023-01-21T14:00:56.795Z,1.07
2023-01-21T14:06:28.509Z,0.99
2023-01-21T14:12:00.295Z,1.06
2023-01-21T14:17:32.236Z,0.97
2023-01-21T14:23:03.899Z,0.64
2023-01-21T14:28:35.622Z,0.85
2023-01-21T14:34:07.536Z,0.98
2023-01-21T14:39:44.092Z,0.48
2023-01-21T14:45:15.584Z,0.75
2023-01-21T14:50:47.091Z,0.7
2023-01-21T14:56:18.837Z,0.65
2023-01-21T15:01:51.115Z,0.75
2023-01-21T15:07:22.069Z,0.71
2023-01-21T15:12:53.798Z,0.61
2023-01-21T15:18:25.479Z,0.92
2023-01-21T15:23:57.396Z,0.94
2023-01-21T15:29:29.207Z,0.94
2023-01-21T15:35:00.694Z,0.76
2023-01-21T15:40:36.816Z,0.79
2023-01-21T15:46:08.580Z,1.04
2023-01-21T15:51:40.216Z,1.02
2023-01-21T15:57:12.125Z,0.98
2023-01-21T16:02:43.860Z,0.99
2023-01-21T16:08:15.645Z,0.87
2023-01-21T16:13:47.115Z,0.94
2023-01-21T16:19:18.862Z,1.05
2023-01-21T16:24:50.766Z,0.97
2023-01-21T16:30:22.612Z,0.98
2023-01-21T16:35:54.078Z,0.74
2023-01-21T16:41:30.192Z,0.82
2023-01-21T16:47:02.122Z,1.02
2023-01-21T16:52:33.839Z,0.75
2023-01-21T16:58:05.376Z,0.46
2023-01-21T17:03:37.416Z,0.21
2023-01-21T17:09:09.004Z,0.39
2023-01-21T17:14:40.524Z,0.59
2023-01-21T17:20:12.313Z,0.72
2023-01-21T17:25:44.164Z,0.77
2023-01-21T17:31:15.847Z,0.56
2023-01-21T17:36:47.496Z,0.31
2023-01-21T17:42:25.552Z,0.45
2023-01-21T17:48:08.937Z,0.18
2023-01-21T17:53:29.208Z,0.18
2023-01-21T17:59:00.788Z,0.18
2023-01-21T18:04:32.592Z,0.19
2023-01-21T18:10:04.164Z,0.14
2023-01-21T18:15:36.161Z,0.42
2023-01-21T18:21:07.611Z,0.57
2023-01-21T18:26:39.818Z,0.81
2023-01-21T18:32:11.202Z,0.68
2023-01-21T18:37:43.183Z,0.36
2023-01-21T18:43:18.905Z,0.54
2023-01-21T18:48:50.823Z,0.36
2023-01-21T18:54:22.748Z,0.41
2023-01-21T18:59:54.099Z,0.33
2023-01-21T19:05:25.894Z,0.4
2023-01-21T19:10:57.484Z,0.11
2023-01-21T19:16:29.290Z,0.19
2023-01-21T19:22:01.149Z,0.13
2023-01-21T19:27:32.814Z,0.05
2023-01-21T19:33:04.455Z,0.19
2023-01-21T19:38:36.438Z,0.29
2023-01-21T19:44:14.432Z,0.26
2023-01-21T19:49:46.142Z,0.1
2023-01-21T19:55:17.815Z,-0.05
2023-01-21T20:00:49.623Z,0.06
2023-01-21T20:06:21.140Z,0.1
2023-01-21T20:11:53.048Z,-0.05
2023-01-21T20:17:24.728Z,-0.13
2023-01-21T20:22:56.589Z,0.06
2023-01-21T20:28:28.012Z,-0.09
2023-01-21T20:33:59.748Z,-0.11
2023-01-21T20:39:31.744Z,-0.26
2023-01-21T20:45:09.621Z,-0.4
2023-01-21T20:50:41.502Z,-0.39
2023-01-21T20:56:13.143Z,-0.42
2023-01-21T21:01:44.773Z,-0.52
2023-01-21T21:07:16.524Z,-0.49
2023-01-21T21:12:48.246Z,-0.42
2023-01-21T21:18:19.989Z,-0.48
2023-01-21T21:23:52.174Z,-0.4
2023-01-21T21:29:23.429Z,-0.37
2023-01-21T21:34:55.167Z,-0.13
2023-01-21T21:40:26.868Z,-0.35
2023-01-21T21:46:03.042Z,-0.26
2023-01-21T21:51:34.772Z,-0.19
2023-01-21T21:57:06.632Z,-0.33
2023-01-21T22:02:38.311Z,-0.23
2023-01-21T22:08:09.980Z,-0.31
2023-01-21T22:13:41.724Z,-0.2
2023-01-21T22:19:13.472Z,-0.29
2023-01-21T22:24:45.194Z,-0.35
2023-01-21T22:30:17.110Z,-0.25
2023-01-21T22:35:48.562Z,-0.28
2023-01-21T22:41:20.352Z,-0.29
2023-01-21T22:46:57.157Z,-0.46
2023-01-21T22:52:28.157Z,-0.39
2023-01-21T22:57:59.900Z,-0.21
2023-01-21T23:03:31.754Z,-0.36
2023-01-21T23:09:03.589Z,-0.43
2023-01-21T23:14:35.082Z,-0.41
2023-01-21T23:20:06.783Z,-0.59
2023-01-21T23:25:38.532Z,-0.45
2023-01-21T23:31:10.632Z,-0.39
2023-01-21T23:36:42.788Z,-0.44
2023-01-21T23:42:13.824Z,-0.31
2023-01-21T23:47:50.005Z,-0.4
2023-01-21T23:53:21.596Z,-0.37
2023-01-21T23:58:53.513Z,-0.33
